sensor_id;sensor_type;location;lat;lon;timestamp;pressure;altitude;pressure_sealevel;temperature;humidity
70521;BME280;58442;52.716;23.560;2023-03-18T00:00:09;102299.59;;;0.53;57.09
70521;BME280;58442;52.716;23.560;2023-03-18T00:02:16;102302.05;;;0.55;57.09
70521;BME280;58442;52.716;23.560;2023-03-18T00:04:18;102300.18;;;0.56;57.08
70521;BME280;58442;52.716;23.560;2023-03-18T00:06:20;102299.12;;;0.57;57.10
70521;BME280;58442;52.716;23.560;2023-03-18T00:08:22;102306.09;;;0.58;57.15
70521;BME280;58442;52.716;23.560;2023-03-18T00:10:23;102301.55;;;0.58;57.18
70521;BME280;58442;52.716;23.560;2023-03-18T00:12:25;102293.77;;;0.57;57.17
70521;BME280;58442;52.716;23.560;2023-03-18T00:14:36;102293.77;;;0.57;57.21
70521;BME280;58442;52.716;23.560;2023-03-18T00:16:38;102288.41;;;0.57;57.31
70521;BME280;58442;52.716;23.560;2023-03-18T00:18:41;102289.48;;;0.56;57.39
70521;BME280;58442;52.716;23.560;2023-03-18T00:20:43;102287.83;;;0.54;57.42
70521;BME280;58442;52.716;23.560;2023-03-18T00:22:50;102286.80;;;0.56;57.50
70521;BME280;58442;52.716;23.560;2023-03-18T00:24:51;102280.65;;;0.55;57.58
70521;BME280;58442;52.716;23.560;2023-03-18T00:26:53;102283.32;;;0.55;57.59
70521;BME280;58442;52.716;23.560;2023-03-18T00:28:57;102280.65;;;0.55;57.60
70521;BME280;58442;52.716;23.560;2023-03-18T00:31:09;102285.75;;;0.57;57.66
70521;BME280;58442;52.716;23.560;2023-03-18T00:33:11;102268.07;;;0.56;57.69
70521;BME280;58442;52.716;23.560;2023-03-18T00:35:12;102271.31;;;0.58;57.67
70521;BME280;58442;52.716;23.560;2023-03-18T00:37:14;102264.10;;;0.58;57.66
70521;BME280;58442;52.716;23.560;2023-03-18T00:39:25;102268.14;;;0.61;57.66
70521;BME280;58442;52.716;23.560;2023-03-18T00:41:30;102265.25;;;0.62;57.73
70521;BME280;58442;52.716;23.560;2023-03-18T00:43:41;102262.07;;;0.65;57.75
70521;BME280;58442;52.716;23.560;2023-03-18T00:45:56;102254.39;;;0.69;57.76
70521;BME280;58442;52.716;23.560;2023-03-18T00:47:57;102256.01;;;0.70;57.75
70521;BME280;58442;52.716;23.560;2023-03-18T00:50:02;102253.08;;;0.71;57.76
70521;BME280;58442;52.716;23.560;2023-03-18T00:52:04;102253.89;;;0.72;57.79
70521;BME280;58442;52.716;23.560;2023-03-18T00:54:07;102249.34;;;0.72;57.80
70521;BME280;58442;52.716;23.560;2023-03-18T00:56:10;102239.45;;;0.73;57.77
70521;BME280;58442;52.716;23.560;2023-03-18T00:58:16;102234.09;;;0.73;57.77
70521;BME280;58442;52.716;23.560;2023-03-18T01:00:19;102241.06;;;0.74;57.78
70521;BME280;58442;52.716;23.560;2023-03-18T01:02:22;102243.19;;;0.72;57.82
70521;BME280;58442;52.716;23.560;2023-03-18T01:04:24;102234.35;;;0.71;57.87
70521;BME280;58442;52.716;23.560;2023-03-18T01:06:34;102237.27;;;0.70;57.92
70521;BME280;58442;52.716;23.560;2023-03-18T01:08:37;102229.26;;;0.70;57.97
70521;BME280;58442;52.716;23.560;2023-03-18T01:10:39;102233.54;;;0.71;57.97
70521;BME280;58442;52.716;23.560;2023-03-18T01:12:41;102228.19;;;0.71;57.96
70521;BME280;58442;52.716;23.560;2023-03-18T01:14:47;102230.05;;;0.70;57.97
70521;BME280;58442;52.716;23.560;2023-03-18T01:16:49;102228.19;;;0.71;58.02
70521;BME280;58442;52.716;23.560;2023-03-18T01:18:51;102227.13;;;0.72;58.05
70521;BME280;58442;52.716;23.560;2023-03-18T01:20:53;102229.30;;;0.75;58.03
70521;BME280;58442;52.716;23.560;2023-03-18T01:23:02;102223.48;;;0.78;58.00
70521;BME280;58442;52.716;23.560;2023-03-18T01:25:03;102223.23;;;0.79;57.95
70521;BME280;58442;52.716;23.560;2023-03-18T01:27:05;102227.27;;;0.82;57.93
70521;BME280;58442;52.716;23.560;2023-03-18T01:29:07;102224.84;;;0.80;57.94
70521;BME280;58442;52.716;23.560;2023-03-18T01:31:17;102232.32;;;0.78;57.98
70521;BME280;58442;52.716;23.560;2023-03-18T01:33:19;102234.20;;;0.78;58.02
70521;BME280;58442;52.716;23.560;2023-03-18T01:35:22;102227.77;;;0.79;58.02
70521;BME280;58442;52.716;23.560;2023-03-18T01:37:25;102224.54;;;0.77;58.02
70521;BME280;58442;52.716;23.560;2023-03-18T01:39:32;102219.66;;;0.74;58.08
70521;BME280;58442;52.716;23.560;2023-03-18T01:41:34;102219.66;;;0.74;58.14
70521;BME280;58442;52.716;23.560;2023-03-18T01:43:39;102221.52;;;0.73;58.16
70521;BME280;58442;52.716;23.560;2023-03-18T01:45:45;102226.63;;;0.75;58.14
70521;BME280;58442;52.716;23.560;2023-03-18T01:47:49;102231.17;;;0.74;58.09
70521;BME280;58442;52.716;23.560;2023-03-18T01:49:51;102226.63;;;0.75;58.08
70521;BME280;58442;52.716;23.560;2023-03-18T01:54:08;102229.30;;;0.75;58.12
70521;BME280;58442;52.716;23.560;2023-03-18T01:56:11;102223.95;;;0.75;58.10
70521;BME280;58442;52.716;23.560;2023-03-18T01:58:31;102222.34;;;0.74;58.13
70521;BME280;58442;52.716;23.560;2023-03-18T02:00:37;102226.63;;;0.75;58.16
70521;BME280;58442;52.716;23.560;2023-03-18T02:02:41;102225.02;;;0.74;58.15
70521;BME280;58442;52.716;23.560;2023-03-18T02:04:53;102224.71;;;0.70;58.19
70521;BME280;58442;52.716;23.560;2023-03-18T02:06:57;102225.98;;;0.68;58.20
70521;BME280;58442;52.716;23.560;2023-03-18T02:09:06;102217.65;;;0.64;58.32
70521;BME280;58442;52.716;23.560;2023-03-18T02:11:09;102215.45;;;0.61;58.47
70521;BME280;58442;52.716;23.560;2023-03-18T02:13:13;102226.95;;;0.62;58.43
70521;BME280;58442;52.716;23.560;2023-03-18T02:15:18;102219.99;;;0.61;58.45
70521;BME280;58442;52.716;23.560;2023-03-18T02:17:25;102221.05;;;0.60;58.46
70521;BME280;58442;52.716;23.560;2023-03-18T02:21:51;102223.98;;;0.58;58.50
70521;BME280;58442;52.716;23.560;2023-03-18T02:24:07;102218.88;;;0.57;58.49
70521;BME280;58442;52.716;23.560;2023-03-18T02:26:20;102220.16;;;0.54;58.57
70521;BME280;58442;52.716;23.560;2023-03-18T02:28:26;102219.84;;;0.50;58.67
70521;BME280;58442;52.716;23.560;2023-03-18T02:30:37;102221.71;;;0.50;58.70
70521;BME280;58442;52.716;23.560;2023-03-18T02:32:50;102220.90;;;0.49;58.68
70521;BME280;58442;52.716;23.560;2023-03-18T02:34:54;102220.09;;;0.49;58.68
70521;BME280;58442;52.716;23.560;2023-03-18T02:36:56;102223.58;;;0.49;58.62
70521;BME280;58442;52.716;23.560;2023-03-18T02:38:58;102219.28;;;0.48;58.63
70521;BME280;58442;52.716;23.560;2023-03-18T02:41:04;102218.45;;;0.48;58.63
70521;BME280;58442;52.716;23.560;2023-03-18T02:43:16;102217.07;;;0.45;58.70
70521;BME280;58442;52.716;23.560;2023-03-18T02:47:31;102220.47;;;0.41;58.78
70521;BME280;58442;52.716;23.560;2023-03-18T02:49:32;102223.64;;;0.38;58.84
70521;BME280;58442;52.716;23.560;2023-03-18T02:51:44;102212.60;;;0.34;58.92
70521;BME280;58442;52.716;23.560;2023-03-18T02:53:47;102223.30;;;0.34;59.00
70521;BME280;58442;52.716;23.560;2023-03-18T02:55:48;102222.74;;;0.32;59.03
70521;BME280;58442;52.716;23.560;2023-03-18T02:57:50;102216.84;;;0.30;59.07
70521;BME280;58442;52.716;23.560;2023-03-18T02:59:59;102213.26;;;0.24;59.14
70521;BME280;58442;52.716;23.560;2023-03-18T03:02:00;102205.73;;;0.21;59.24
70521;BME280;58442;52.716;23.560;2023-03-18T03:04:02;102213.97;;;0.20;59.25
70521;BME280;58442;52.716;23.560;2023-03-18T03:06:04;102210.73;;;0.18;59.29
70521;BME280;58442;52.716;23.560;2023-03-18T03:08:14;102205.88;;;0.15;59.38
70521;BME280;58442;52.716;23.560;2023-03-18T03:10:16;102212.29;;;0.14;59.43
70521;BME280;58442;52.716;23.560;2023-03-18T03:12:17;102207.15;;;0.12;59.47
70521;BME280;58442;52.716;23.560;2023-03-18T03:14:19;102211.13;;;0.10;59.51
70521;BME280;58442;52.716;23.560;2023-03-18T03:16:29;102204.42;;;0.07;59.59
70521;BME280;58442;52.716;23.560;2023-03-18T03:18:31;102212.66;;;0.06;59.66
70521;BME280;58442;52.716;23.560;2023-03-18T03:20:32;102221.73;;;0.05;59.68
70521;BME280;58442;52.716;23.560;2023-03-18T03:22:37;102218.48;;;0.03;59.70
70521;BME280;58442;52.716;23.560;2023-03-18T03:24:44;102219.55;;;0.02;59.75
70521;BME280;58442;52.716;23.560;2023-03-18T03:26:45;102219.55;;;0.02;59.80
70521;BME280;58442;52.716;23.560;2023-03-18T03:28:48;102224.09;;;0.01;59.81
70521;BME280;58442;52.716;23.560;2023-03-18T03:30:49;102216.87;;;0.02;59.79
70521;BME280;58442;52.716;23.560;2023-03-18T03:33:00;102220.60;;;0.01;59.77
70521;BME280;58442;52.716;23.560;2023-03-18T03:35:02;102223.48;;;-0.01;59.85
70521;BME280;58442;52.716;23.560;2023-03-18T03:37:05;102226.41;;;-0.03;59.87
70521;BME280;58442;52.716;23.560;2023-03-18T03:39:06;102222.36;;;-0.05;59.90
70521;BME280;58442;52.716;23.560;2023-03-18T03:41:15;102220.50;;;-0.05;59.92
70521;BME280;58442;52.716;23.560;2023-03-18T03:43:17;102214.34;;;-0.05;59.94
70521;BME280;58442;52.716;23.560;2023-03-18T03:45:18;102211.08;;;-0.07;59.99
70521;BME280;58442;52.716;23.560;2023-03-18T03:47:19;102207.60;;;-0.08;60.01
70521;BME280;58442;52.716;23.560;2023-03-18T03:49:29;102211.08;;;-0.07;60.03
70521;BME280;58442;52.716;23.560;2023-03-18T03:51:31;102211.57;;;-0.10;60.05
70521;BME280;58442;52.716;23.560;2023-03-18T03:53:33;102216.11;;;-0.11;60.11
70521;BME280;58442;52.716;23.560;2023-03-18T03:55:36;102212.63;;;-0.11;60.11
70521;BME280;58442;52.716;23.560;2023-03-18T03:57:45;102214.24;;;-0.10;60.12
70521;BME280;58442;52.716;23.560;2023-03-18T03:59:46;102218.29;;;-0.08;60.11
70521;BME280;58442;52.716;23.560;2023-03-18T04:01:47;102208.90;;;-0.10;60.13
70521;BME280;58442;52.716;23.560;2023-03-18T04:03:49;102211.33;;;-0.09;60.12
70521;BME280;58442;52.716;23.560;2023-03-18T04:05:59;102208.90;;;-0.10;60.17
70521;BME280;58442;52.716;23.560;2023-03-18T04:08:02;102209.15;;;-0.12;60.23
70521;BME280;58442;52.716;23.560;2023-03-18T04:10:04;102209.15;;;-0.12;60.26
70521;BME280;58442;52.716;23.560;2023-03-18T04:12:07;102214.24;;;-0.10;60.24
70521;BME280;58442;52.716;23.560;2023-03-18T04:14:14;102208.09;;;-0.11;60.27
70521;BME280;58442;52.716;23.560;2023-03-18T04:16:17;102211.81;;;-0.12;60.31
70521;BME280;58442;52.716;23.560;2023-03-18T04:18:18;102209.15;;;-0.12;60.35
70521;BME280;58442;52.716;23.560;2023-03-18T04:20:20;102217.17;;;-0.12;60.37
70521;BME280;58442;52.716;23.560;2023-03-18T04:22:30;102205.67;;;-0.12;60.40
70521;BME280;58442;52.716;23.560;2023-03-18T04:24:31;102199.52;;;-0.13;60.42
70521;BME280;58442;52.716;23.560;2023-03-18T04:26:33;102202.40;;;-0.14;60.48
70521;BME280;58442;52.716;23.560;2023-03-18T04:28:34;102200.78;;;-0.15;60.51
70521;BME280;58442;52.716;23.560;2023-03-18T04:30:47;102197.54;;;-0.17;60.57
70521;BME280;58442;52.716;23.560;2023-03-18T04:32:48;102205.07;;;-0.14;60.61
70521;BME280;58442;52.716;23.560;2023-03-18T04:34:51;102199.97;;;-0.16;60.60
70521;BME280;58442;52.716;23.560;2023-03-18T04:36:52;102194.63;;;-0.16;60.57
70521;BME280;58442;52.716;23.560;2023-03-18T04:39:00;102199.97;;;-0.16;60.60
70521;BME280;58442;52.716;23.560;2023-03-18T04:41:01;102203.45;;;-0.15;60.63
70521;BME280;58442;52.716;23.560;2023-03-18T04:43:03;102206.94;;;-0.15;60.67
70521;BME280;58442;52.716;23.560;2023-03-18T04:45:05;102212.07;;;-0.13;60.63
70521;BME280;58442;52.716;23.560;2023-03-18T04:47:15;102212.63;;;-0.11;60.59
70521;BME280;58442;52.716;23.560;2023-03-18T04:49:16;102208.90;;;-0.10;60.62
70521;BME280;58442;52.716;23.560;2023-03-18T04:51:18;102205.42;;;-0.11;60.67
70521;BME280;58442;52.716;23.560;2023-03-18T04:53:20;102211.57;;;-0.10;60.68
70521;BME280;58442;52.716;23.560;2023-03-18T04:55:30;102207.85;;;-0.09;60.72
70521;BME280;58442;52.716;23.560;2023-03-18T04:57:31;102208.66;;;-0.09;60.73
70521;BME280;58442;52.716;23.560;2023-03-18T04:59:37;102207.60;;;-0.08;60.75
70521;BME280;58442;52.716;23.560;2023-03-18T05:01:38;102207.60;;;-0.08;60.76
70521;BME280;58442;52.716;23.560;2023-03-18T05:03:45;102212.95;;;-0.08;60.82
70521;BME280;58442;52.716;23.560;2023-03-18T05:05:47;102208.41;;;-0.07;60.87
70521;BME280;58442;52.716;23.560;2023-03-18T05:07:49;102207.60;;;-0.08;60.89
70521;BME280;58442;52.716;23.560;2023-03-18T05:09:51;102202.04;;;-0.06;60.91
70521;BME280;58442;52.716;23.560;2023-03-18T05:12:00;102208.75;;;-0.04;60.91
70521;BME280;58442;52.716;23.560;2023-03-18T05:14:01;102205.03;;;-0.03;61.16
70521;BME280;58442;52.716;23.560;2023-03-18T05:16:03;102204.56;;;0.01;61.02
70521;BME280;58442;52.716;23.560;2023-03-18T05:18:04;102211.53;;;0.02;61.03
70521;BME280;58442;52.716;23.560;2023-03-18T05:20:15;102213.71;;;0.05;61.08
70521;BME280;58442;52.716;23.560;2023-03-18T05:22:18;102217.78;;;0.07;61.09
70521;BME280;58442;52.716;23.560;2023-03-18T05:24:20;102222.39;;;0.12;61.07
70521;BME280;58442;52.716;23.560;2023-03-18T05:26:22;102220.30;;;0.14;61.04
70521;BME280;58442;52.716;23.560;2023-03-18T05:28:31;102216.09;;;0.18;61.05
70521;BME280;58442;52.716;23.560;2023-03-18T05:30:33;102221.98;;;0.20;61.09
70521;BME280;58442;52.716;23.560;2023-03-18T05:32:39;102225.25;;;0.22;61.11
70521;BME280;58442;52.716;23.560;2023-03-18T05:34:41;102225.81;;;0.24;61.10
70521;BME280;58442;52.716;23.560;2023-03-18T05:36:45;102227.77;;;0.29;61.08
70521;BME280;58442;52.716;23.560;2023-03-18T05:38:47;102221.93;;;0.32;61.13
70521;BME280;58442;52.716;23.560;2023-03-18T05:40:48;102227.62;;;0.35;61.10
70521;BME280;58442;52.716;23.560;2023-03-18T05:42:49;102227.94;;;0.39;61.06
70521;BME280;58442;52.716;23.560;2023-03-18T05:45:00;102225.60;;;0.42;61.08
70521;BME280;58442;52.716;23.560;2023-03-18T05:47:03;102214.16;;;0.47;61.05
70521;BME280;58442;52.716;23.560;2023-03-18T05:49:04;102210.76;;;0.51;61.00
70521;BME280;58442;52.716;23.560;2023-03-18T05:51:06;102220.97;;;0.54;60.98
70521;BME280;58442;52.716;23.560;2023-03-18T05:53:15;102206.05;;;0.59;60.97
70521;BME280;58442;52.716;23.560;2023-03-18T05:55:17;102218.93;;;0.62;60.97
70521;BME280;58442;52.716;23.560;2023-03-18T05:57:19;102218.20;;;0.66;60.96
70521;BME280;58442;52.716;23.560;2023-03-18T05:59:21;102210.27;;;0.71;60.89
70521;BME280;58442;52.716;23.560;2023-03-18T06:01:31;102209.55;;;0.76;60.87
70521;BME280;58442;52.716;23.560;2023-03-18T06:03:33;102202.96;;;0.84;60.87
70521;BME280;58442;52.716;23.560;2023-03-18T06:05:34;102214.31;;;0.91;60.79
70521;BME280;58442;52.716;23.560;2023-03-18T06:07:35;102216.23;;;0.95;60.74
70521;BME280;58442;52.716;23.560;2023-03-18T06:09:45;102216.31;;;1.00;60.72
70521;BME280;58442;52.716;23.560;2023-03-18T06:11:47;102211.03;;;1.05;60.70
70521;BME280;58442;52.716;23.560;2023-03-18T06:13:49;102217.01;;;1.13;60.64
70521;BME280;58442;52.716;23.560;2023-03-18T06:15:56;102218.71;;;1.19;60.55
70521;BME280;58442;52.716;23.560;2023-03-18T06:18:00;102215.85;;;1.25;60.48
70521;BME280;58442;52.716;23.560;2023-03-18T06:20:07;102220.44;;;1.30;60.46
70521;BME280;58442;52.716;23.560;2023-03-18T06:22:10;102219.46;;;1.36;60.42
70521;BME280;58442;52.716;23.560;2023-03-18T06:24:11;102222.20;;;1.41;60.38
70521;BME280;58442;52.716;23.560;2023-03-18T06:26:16;102213.43;;;1.46;60.36
70521;BME280;58442;52.716;23.560;2023-03-18T06:28:17;102214.31;;;1.51;60.34
70521;BME280;58442;52.716;23.560;2023-03-18T06:30:19;102219.48;;;1.58;60.33
70521;BME280;58442;52.716;23.560;2023-03-18T06:32:21;102221.13;;;1.64;60.27
70521;BME280;58442;52.716;23.560;2023-03-18T06:34:30;102223.06;;;1.69;60.26
70521;BME280;58442;52.716;23.560;2023-03-18T06:36:32;102220.71;;;1.72;60.24
70521;BME280;58442;52.716;23.560;2023-03-18T06:38:34;102223.68;;;1.76;60.20
70521;BME280;58442;52.716;23.560;2023-03-18T06:40:35;102214.64;;;1.82;60.32
70521;BME280;58442;52.716;23.560;2023-03-18T06:42:46;102222.23;;;1.90;60.11
70521;BME280;58442;52.716;23.560;2023-03-18T06:44:47;102226.09;;;1.99;60.03
70521;BME280;58442;52.716;23.560;2023-03-18T06:46:51;102225.05;;;2.05;59.95
70521;BME280;58442;52.716;23.560;2023-03-18T06:48:53;102225.66;;;2.12;59.89
70521;BME280;58442;52.716;23.560;2023-03-18T06:51:01;102218.79;;;2.22;59.83
70521;BME280;58442;52.716;23.560;2023-03-18T06:53:03;102223.14;;;2.28;59.76
70521;BME280;58442;52.716;23.560;2023-03-18T06:55:05;102225.36;;;2.36;59.70
70521;BME280;58442;52.716;23.560;2023-03-18T06:57:07;102218.99;;;2.47;59.59
70521;BME280;58442;52.716;23.560;2023-03-18T06:59:16;102223.65;;;2.57;59.48
70521;BME280;58442;52.716;23.560;2023-03-18T07:01:18;102216.45;;;2.62;59.38
70521;BME280;58442;52.716;23.560;2023-03-18T07:03:20;102219.99;;;2.68;59.30
70521;BME280;58442;52.716;23.560;2023-03-18T07:05:22;102219.23;;;2.78;59.23
70521;BME280;58442;52.716;23.560;2023-03-18T07:07:31;102218.75;;;2.86;59.14
70521;BME280;58442;52.716;23.560;2023-03-18T07:09:32;102227.70;;;2.96;59.06
70521;BME280;58442;52.716;23.560;2023-03-18T07:11:34;102227.47;;;3.03;58.96
70521;BME280;58442;52.716;23.560;2023-03-18T07:13:35;102225.91;;;3.12;58.89
70521;BME280;58442;52.716;23.560;2023-03-18T07:15:46;102231.08;;;3.24;58.77
70521;BME280;58442;52.716;23.560;2023-03-18T07:17:49;102227.11;;;3.37;58.65
70521;BME280;58442;52.716;23.560;2023-03-18T07:19:51;102223.92;;;3.50;58.47
70521;BME280;58442;52.716;23.560;2023-03-18T07:21:53;102229.61;;;3.64;58.33
70521;BME280;58442;52.716;23.560;2023-03-18T07:24:01;102213.27;;;3.75;58.17
70521;BME280;58442;52.716;23.560;2023-03-18T07:26:04;102220.02;;;3.88;58.02
70521;BME280;58442;52.716;23.560;2023-03-18T07:28:05;102208.75;;;4.01;57.82
70521;BME280;58442;52.716;23.560;2023-03-18T07:30:07;102210.12;;;4.14;57.67
70521;BME280;58442;52.716;23.560;2023-03-18T07:32:16;102209.31;;;4.29;57.51
70521;BME280;58442;52.716;23.560;2023-03-18T07:34:19;102210.15;;;4.39;57.37
70521;BME280;58442;52.716;23.560;2023-03-18T07:36:21;102218.73;;;4.52;57.20
70521;BME280;58442;52.716;23.560;2023-03-18T07:38:22;102199.34;;;4.65;57.05
70521;BME280;58442;52.716;23.560;2023-03-18T07:40:31;102206.87;;;4.78;56.83
70521;BME280;58442;52.716;23.560;2023-03-18T07:42:32;102195.52;;;4.91;56.66
70521;BME280;58442;52.716;23.560;2023-03-18T07:44:34;102199.83;;;5.03;56.45
70521;BME280;58442;52.716;23.560;2023-03-18T07:46:36;102199.78;;;5.13;56.30
70521;BME280;58442;52.716;23.560;2023-03-18T07:48:46;102194.10;;;5.25;56.17
70521;BME280;58442;52.716;23.560;2023-03-18T07:50:48;102185.70;;;5.36;56.04
70521;BME280;58442;52.716;23.560;2023-03-18T07:52:50;102187.80;;;5.49;55.92
70521;BME280;58442;52.716;23.560;2023-03-18T07:54:52;102196.10;;;5.63;55.76
70521;BME280;58442;52.716;23.560;2023-03-18T07:57:00;102183.62;;;5.72;55.61
70521;BME280;58442;52.716;23.560;2023-03-18T07:59:04;102181.13;;;5.81;55.47
70521;BME280;58442;52.716;23.560;2023-03-18T08:01:06;102170.84;;;5.88;55.33
70521;BME280;58442;52.716;23.560;2023-03-18T08:03:08;102176.47;;;5.97;55.22
70521;BME280;58442;52.716;23.560;2023-03-18T08:05:16;102186.42;;;6.01;55.13
70521;BME280;58442;52.716;23.560;2023-03-18T08:07:19;102183.70;;;6.07;55.06
70521;BME280;58442;52.716;23.560;2023-03-18T08:09:24;102175.02;;;6.10;54.95
70521;BME280;58442;52.716;23.560;2023-03-18T08:11:27;102170.41;;;6.15;54.92
70521;BME280;58442;52.716;23.560;2023-03-18T08:13:31;102163.08;;;6.21;54.88
70521;BME280;58442;52.716;23.560;2023-03-18T08:15:32;102165.45;;;6.27;54.75
70521;BME280;58442;52.716;23.560;2023-03-18T08:17:34;102150.55;;;6.35;54.66
70521;BME280;58442;52.716;23.560;2023-03-18T08:19:36;102163.71;;;6.42;54.58
70521;BME280;58442;52.716;23.560;2023-03-18T08:21:45;102151.48;;;6.49;54.48
70521;BME280;58442;52.716;23.560;2023-03-18T08:23:47;102149.26;;;6.56;54.35
70521;BME280;58442;52.716;23.560;2023-03-18T08:26:30;102147.78;;;6.69;54.27
70521;BME280;58442;52.716;23.560;2023-03-18T08:28:32;102141.20;;;6.80;54.11
70521;BME280;58442;52.716;23.560;2023-03-18T08:30:34;102147.73;;;6.98;53.98
70521;BME280;58442;52.716;23.560;2023-03-18T08:32:45;102146.48;;;7.15;53.75
70521;BME280;58442;52.716;23.560;2023-03-18T08:34:47;102151.69;;;7.30;53.60
70521;BME280;58442;52.716;23.560;2023-03-18T08:36:49;102148.77;;;7.45;53.42
70521;BME280;58442;52.716;23.560;2023-03-18T08:38:50;102155.56;;;7.61;53.25
70521;BME280;58442;52.716;23.560;2023-03-18T08:41:00;102143.95;;;7.80;53.06
70521;BME280;58442;52.716;23.560;2023-03-18T08:43:01;102142.90;;;7.94;52.93
70521;BME280;58442;52.716;23.560;2023-03-18T08:45:03;102145.66;;;8.08;52.72
70521;BME280;58442;52.716;23.560;2023-03-18T08:47:05;102148.73;;;8.20;52.57
70521;BME280;58442;52.716;23.560;2023-03-18T08:49:15;102148.76;;;8.34;52.44
70521;BME280;58442;52.716;23.560;2023-03-18T08:51:18;102145.81;;;8.49;52.25
70521;BME280;58442;52.716;23.560;2023-03-18T08:53:19;102139.30;;;8.64;52.12
70521;BME280;58442;52.716;23.560;2023-03-18T08:55:21;102128.79;;;8.76;51.98
70521;BME280;58442;52.716;23.560;2023-03-18T08:57:30;102140.84;;;8.84;51.72
70521;BME280;58442;52.716;23.560;2023-03-18T08:59:32;102137.54;;;8.87;51.56
70521;BME280;58442;52.716;23.560;2023-03-18T09:01:33;102135.02;;;8.91;51.43
70521;BME280;58442;52.716;23.560;2023-03-18T09:03:35;102131.59;;;8.99;51.45
70521;BME280;58442;52.716;23.560;2023-03-18T09:05:47;102135.22;;;9.08;51.46
70521;BME280;58442;52.716;23.560;2023-03-18T09:07:49;102130.20;;;9.15;51.21
70521;BME280;58442;52.716;23.560;2023-03-18T09:09:51;102111.10;;;9.20;51.12
70521;BME280;58442;52.716;23.560;2023-03-18T09:11:53;102122.45;;;9.22;51.07
70521;BME280;58442;52.716;23.560;2023-03-18T09:13:59;102118.31;;;9.25;50.99
70521;BME280;58442;52.716;23.560;2023-03-18T09:16:01;102123.64;;;9.30;50.92
70521;BME280;58442;52.716;23.560;2023-03-18T09:18:03;102112.48;;;9.31;50.82
70521;BME280;58442;52.716;23.560;2023-03-18T09:20:11;102111.88;;;9.35;50.79
70521;BME280;58442;52.716;23.560;2023-03-18T09:22:14;102116.09;;;9.41;50.72
70521;BME280;58442;52.716;23.560;2023-03-18T09:24:17;102109.13;;;9.48;50.61
70521;BME280;58442;52.716;23.560;2023-03-18T09:26:19;102106.28;;;9.53;50.50
70521;BME280;58442;52.716;23.560;2023-03-18T09:28:20;102119.27;;;9.56;50.34
70521;BME280;58442;52.716;23.560;2023-03-18T09:30:29;102107.49;;;9.61;50.36
70521;BME280;58442;52.716;23.560;2023-03-18T09:32:32;102098.92;;;9.68;50.30
70521;BME280;58442;52.716;23.560;2023-03-18T09:34:33;102098.67;;;9.78;50.15
70521;BME280;58442;52.716;23.560;2023-03-18T09:36:35;102101.27;;;9.83;50.08
70521;BME280;58442;52.716;23.560;2023-03-18T09:38:44;102094.60;;;9.89;49.93
70521;BME280;58442;52.716;23.560;2023-03-18T09:40:56;102094.46;;;9.94;49.87
70521;BME280;58442;52.716;23.560;2023-03-18T09:45:21;102092.30;;;10.05;49.70
70521;BME280;58442;52.716;23.560;2023-03-18T09:47:40;102099.70;;;10.13;49.63
70521;BME280;58442;52.716;23.560;2023-03-18T09:52:03;102085.90;;;10.23;49.43
70521;BME280;58442;52.716;23.560;2023-03-18T09:54:15;102084.14;;;10.27;49.35
70521;BME280;58442;52.716;23.560;2023-03-18T09:56:31;102096.80;;;10.32;49.30
70521;BME280;58442;52.716;23.560;2023-03-18T10:00:52;102091.89;;;10.43;49.12
70521;BME280;58442;52.716;23.560;2023-03-18T10:02:59;102091.28;;;10.46;48.95
70521;BME280;58442;52.716;23.560;2023-03-18T10:05:09;102104.39;;;10.44;48.92
70521;BME280;58442;52.716;23.560;2023-03-18T10:07:17;102104.06;;;10.45;48.95
70521;BME280;58442;52.716;23.560;2023-03-18T10:09:28;102108.38;;;10.46;48.89
70521;BME280;58442;52.716;23.560;2023-03-18T10:11:38;102086.01;;;10.49;48.84
70521;BME280;58442;52.716;23.560;2023-03-18T10:13:47;102090.19;;;10.55;48.82
70521;BME280;58442;52.716;23.560;2023-03-18T10:15:56;102089.26;;;10.60;48.75
70521;BME280;58442;52.716;23.560;2023-03-18T10:22:53;102078.42;;;10.77;48.56
70521;BME280;58442;52.716;23.560;2023-03-18T10:25:11;102073.16;;;10.72;48.57
70521;BME280;58442;52.716;23.560;2023-03-18T10:29:57;102081.66;;;10.79;48.54
70521;BME280;58442;52.716;23.560;2023-03-18T10:32:16;102089.68;;;10.84;48.47
70521;BME280;58442;52.716;23.560;2023-03-18T10:39:12;102071.95;;;11.04;48.27
70521;BME280;58442;52.716;23.560;2023-03-18T10:41:27;102071.95;;;11.04;48.18
70521;BME280;58442;52.716;23.560;2023-03-18T10:43:31;102059.96;;;11.05;48.15
70521;BME280;58442;52.716;23.560;2023-03-18T10:45:35;102062.36;;;11.07;48.06
70521;BME280;58442;52.716;23.560;2023-03-18T10:47:40;102054.20;;;11.07;48.00
70521;BME280;58442;52.716;23.560;2023-03-18T10:54:39;102057.55;;;11.04;47.88
70521;BME280;58442;52.716;23.560;2023-03-18T10:56:41;102048.90;;;11.02;47.89
70521;BME280;58442;52.716;23.560;2023-03-18T10:58:43;102040.09;;;11.05;47.87
70521;BME280;58442;52.716;23.560;2023-03-18T11:00:46;102051.48;;;11.07;47.84
70521;BME280;58442;52.716;23.560;2023-03-18T11:02:51;102049.55;;;11.07;47.82
70521;BME280;58442;52.716;23.560;2023-03-18T11:05:01;102046.69;;;11.12;47.74
70521;BME280;58442;52.716;23.560;2023-03-18T11:07:13;102040.27;;;11.17;47.75
70521;BME280;58442;52.716;23.560;2023-03-18T11:09:20;102032.76;;;11.22;47.70
70521;BME280;58442;52.716;23.560;2023-03-18T11:11:29;102040.77;;;11.28;47.62
70521;BME280;58442;52.716;23.560;2023-03-18T11:13:34;102033.08;;;11.30;47.54
70521;BME280;58442;52.716;23.560;2023-03-18T11:15:44;102036.77;;;11.34;47.47
70521;BME280;58442;52.716;23.560;2023-03-18T11:17:48;102033.56;;;11.40;47.38
70521;BME280;58442;52.716;23.560;2023-03-18T11:20:01;102024.74;;;11.43;47.25